createdAt,value
2022-09-03T00:00:25.769Z,100.00
2022-09-03T00:03:01.363Z,100.00
2022-09-03T00:05:38.144Z,100.00
2022-09-03T00:08:11.313Z,100.00
2022-09-03T00:10:47.096Z,100.00
2022-09-03T00:13:18.786Z,100.00
2022-09-03T00:15:46.845Z,100.00
2022-09-03T00:18:21.039Z,100.00
2022-09-03T00:20:53.548Z,100.00
2022-09-03T00:23:23.942Z,100.00
2022-09-03T00:25:57.182Z,100.00
2022-09-03T00:28:30.248Z,100.00
2022-09-03T00:31:07.288Z,100.00
2022-09-03T00:33:38.842Z,100.00
2022-09-03T00:36:15.937Z,100.00
2022-09-03T00:38:44.065Z,100.00
2022-09-03T00:41:25.009Z,100.00
2022-09-03T00:44:12.242Z,100.00
2022-09-03T00:46:46.152Z,100.00
2022-09-03T00:49:38.521Z,100.00
2022-09-03T00:52:14.461Z,100.00
2022-09-03T00:54:49.891Z,100.00
2022-09-03T00:57:31.753Z,100.00
2022-09-03T01:00:07.028Z,100.00
2022-09-03T01:02:49.190Z,100.00
2022-09-03T01:05:30.619Z,100.00
2022-09-03T01:08:08.241Z,100.00
2022-09-03T01:10:46.821Z,100.00
2022-09-03T01:13:21.242Z,100.00
2022-09-03T01:16:00.819Z,100.00
2022-09-03T01:18:37.179Z,100.00
2022-09-03T01:21:30.797Z,100.00
2022-09-03T01:24:31.224Z,100.00
2022-09-03T01:27:17.516Z,100.00
2022-09-03T01:29:58.430Z,100.00
2022-09-03T01:32:36.041Z,100.00
2022-09-03T01:35:16.427Z,100.00
2022-09-03T01:37:57.680Z,100.00
2022-09-03T01:40:35.325Z,100.00
2022-09-03T01:43:21.199Z,100.00
2022-09-03T01:45:55.202Z,100.00
2022-09-03T01:48:40.948Z,100.00
2022-09-03T01:51:19.571Z,100.00
2022-09-03T01:54:07.669Z,100.00
2022-09-03T01:56:51.550Z,100.00
2022-09-03T01:59:27.751Z,100.00
2022-09-03T02:02:02.212Z,100.00
2022-09-03T02:04:31.765Z,100.00
2022-09-03T02:07:02.188Z,100.00
2022-09-03T02:09:32.867Z,100.00
2022-09-03T02:12:06.562Z,100.00
2022-09-03T02:14:34.980Z,100.00
2022-09-03T02:17:06.575Z,100.00
2022-09-03T02:19:37.634Z,100.00
2022-09-03T02:22:06.525Z,100.00
2022-09-03T02:24:34.386Z,100.00
2022-09-03T02:27:02.382Z,100.00
2022-09-03T02:29:30.825Z,100.00
2022-09-03T02:31:59.664Z,100.00
2022-09-03T02:34:28.817Z,100.00
2022-09-03T02:36:56.880Z,100.00
2022-09-03T02:39:24.769Z,100.00
2022-09-03T02:41:55.900Z,100.00
2022-09-03T02:44:30.784Z,100.00
2022-09-03T02:47:01.778Z,100.00
2022-09-03T02:49:31.346Z,100.00
2022-09-03T02:52:01.735Z,100.00
2022-09-03T02:54:29.586Z,100.00
2022-09-03T02:56:57.682Z,100.00
2022-09-03T02:59:28.214Z,100.00
2022-09-03T03:01:56.158Z,100.00
2022-09-03T03:04:30.495Z,100.00
2022-09-03T03:07:00.312Z,100.00
2022-09-03T03:09:28.993Z,100.00
2022-09-03T03:11:56.943Z,100.00
2022-09-03T03:14:24.853Z,100.00
2022-09-03T03:16:52.791Z,100.00
2022-09-03T03:19:20.836Z,100.00
2022-09-03T03:21:48.716Z,100.00
2022-09-03T03:24:17.923Z,100.00
2022-09-03T03:26:46.053Z,100.00
2022-09-03T03:29:17.851Z,100.00
2022-09-03T03:31:45.737Z,100.00
2022-09-03T03:34:13.577Z,100.00
2022-09-03T03:36:41.485Z,100.00
2022-09-03T03:39:11.216Z,100.00
2022-09-03T03:41:40.676Z,100.00
2022-09-03T03:44:09.352Z,100.00
2022-09-03T03:46:39.207Z,100.00
2022-09-03T03:49:08.203Z,100.00
2022-09-03T03:51:37.225Z,100.00
2022-09-03T03:54:05.971Z,100.00
2022-09-03T03:56:34.747Z,100.00
2022-09-03T03:59:04.854Z,100.00
2022-09-03T04:01:33.260Z,100.00
2022-09-03T04:04:01.387Z,100.00
2022-09-03T04:06:29.966Z,100.00
2022-09-03T04:08:58.114Z,100.00
2022-09-03T04:11:26.896Z,100.00
2022-09-03T04:13:54.807Z,100.00
2022-09-03T04:16:25.717Z,100.00
2022-09-03T04:18:54.358Z,100.00
2022-09-03T04:21:24.305Z,100.00
2022-09-03T04:23:54.414Z,100.00
2022-09-03T04:26:24.690Z,100.00
2022-09-03T04:28:52.712Z,100.00
2022-09-03T04:31:22.579Z,100.00
2022-09-03T04:33:52.244Z,100.00
2022-09-03T04:36:21.470Z,100.00
2022-09-03T04:38:53.515Z,100.00
2022-09-03T04:41:24.833Z,100.00
2022-09-03T04:43:53.416Z,100.00
2022-09-03T04:46:22.940Z,100.00
2022-09-03T04:48:54.247Z,100.00
2022-09-03T04:51:23.745Z,100.00
2022-09-03T04:53:56.620Z,100.00
2022-09-03T04:56:26.582Z,100.00
2022-09-03T04:58:56.773Z,100.00
2022-09-03T05:01:27.128Z,100.00
2022-09-03T05:03:57.569Z,100.00
2022-09-03T05:06:25.632Z,100.00
2022-09-03T05:08:54.768Z,100.00
2022-09-03T05:11:23.525Z,100.00
2022-09-03T05:13:52.845Z,100.00
2022-09-03T05:16:21.500Z,100.00
2022-09-03T05:18:49.803Z,100.00
2022-09-03T05:21:20.029Z,100.00
2022-09-03T05:23:50.355Z,100.00
2022-09-03T05:26:20.465Z,100.00
2022-09-03T05:28:49.156Z,100.00
2022-09-03T05:31:19.237Z,100.00
2022-09-03T05:33:48.913Z,100.00
2022-09-03T05:36:20.502Z,100.00
2022-09-03T05:38:48.678Z,100.00
2022-09-03T05:41:19.015Z,100.00
2022-09-03T05:43:51.912Z,100.00
2022-09-03T05:46:20.071Z,100.00
2022-09-03T05:48:47.890Z,100.00
2022-09-03T05:51:17.768Z,100.00
2022-09-03T05:53:48.775Z,100.00
2022-09-03T05:56:18.303Z,100.00
2022-09-03T05:58:48.148Z,100.00
2022-09-03T06:01:17.594Z,100.00
2022-09-03T06:03:47.357Z,100.00
2022-09-03T06:06:15.665Z,100.00
2022-09-03T06:08:44.979Z,100.00
2022-09-03T06:11:14.222Z,100.00
2022-09-03T06:13:42.204Z,100.00
2022-09-03T06:16:10.224Z,100.00
2022-09-03T06:18:38.205Z,98.12
2022-09-03T06:21:07.558Z,97.90
2022-09-03T06:23:36.763Z,99.36
2022-09-03T06:26:08.958Z,97.08
2022-09-03T06:28:42.143Z,97.48
2022-09-03T06:31:12.572Z,98.89
2022-09-03T06:33:42.558Z,99.68
2022-09-03T06:36:13.102Z,96.87
2022-09-03T06:38:41.972Z,98.16
2022-09-03T06:41:11.141Z,96.01
2022-09-03T06:43:42.431Z,95.73
2022-09-03T06:46:12.681Z,92.22
2022-09-03T06:48:41.929Z,91.64
2022-09-03T06:51:15.354Z,93.45
2022-09-03T06:53:45.105Z,92.18
2022-09-03T06:56:15.130Z,92.12
2022-09-03T06:58:45.877Z,90.57
2022-09-03T07:01:15.988Z,91.68
2022-09-03T07:03:45.583Z,91.39
2022-09-03T07:06:16.025Z,89.23
2022-09-03T07:08:44.535Z,89.87
2022-09-03T07:11:14.189Z,91.54
2022-09-03T07:13:45.244Z,91.28
2022-09-03T07:16:15.942Z,88.88
2022-09-03T07:18:44.714Z,88.65
2022-09-03T07:21:14.529Z,87.06
2022-09-03T07:23:43.187Z,87.69
2022-09-03T07:26:13.354Z,87.75
2022-09-03T07:28:43.128Z,88.00
2022-09-03T07:31:15.095Z,87.63
2022-09-03T07:33:43.611Z,87.30
2022-09-03T07:36:14.349Z,86.59
2022-09-03T07:38:43.776Z,80.98
2022-09-03T07:41:17.612Z,81.68
2022-09-03T07:43:57.510Z,82.87
2022-09-03T07:46:28.384Z,83.31
2022-09-03T07:48:57.502Z,82.39
2022-09-03T07:51:28.394Z,81.53
2022-09-03T07:53:58.413Z,82.42
2022-09-03T07:56:27.497Z,82.70
2022-09-03T07:58:56.434Z,81.19
2022-09-03T08:01:28.566Z,81.99
2022-09-03T08:03:57.076Z,81.32
2022-09-03T08:06:26.705Z,79.86
2022-09-03T08:09:03.706Z,80.59
2022-09-03T08:11:35.093Z,81.51
2022-09-03T08:14:06.368Z,82.62
2022-09-03T08:16:37.995Z,83.80
2022-09-03T08:19:10.146Z,85.76
2022-09-03T08:21:38.495Z,86.37
2022-09-03T08:24:06.912Z,79.68
2022-09-03T08:26:36.489Z,80.59
2022-09-03T08:29:05.333Z,80.34
2022-09-03T08:31:36.685Z,78.29
2022-09-03T08:34:07.441Z,77.45
2022-09-03T08:36:37.275Z,79.96
2022-09-03T08:39:09.950Z,80.00
2022-09-03T08:41:52.975Z,79.60
2022-09-03T08:44:26.809Z,78.31
2022-09-03T08:47:01.350Z,77.09
2022-09-03T08:49:35.881Z,78.11
2022-09-03T08:52:08.934Z,77.36
2022-09-03T08:54:38.786Z,76.08
2022-09-03T08:57:08.760Z,72.98
2022-09-03T08:59:37.214Z,73.71
2022-09-03T09:02:25.634Z,75.71
2022-09-03T09:05:07.675Z,71.88
2022-09-03T09:07:45.617Z,71.83
2022-09-03T09:10:20.512Z,72.82
2022-09-03T09:12:57.385Z,74.54
2022-09-03T09:15:31.660Z,74.92
2022-09-03T09:18:11.900Z,71.90
2022-09-03T09:20:48.458Z,72.96
2022-09-03T09:23:23.874Z,72.32
2022-09-03T09:25:56.364Z,70.89
2022-09-03T09:28:26.053Z,69.81
2022-09-03T09:30:58.009Z,70.71
2022-09-03T09:33:27.935Z,70.34
2022-09-03T09:35:56.980Z,70.27
2022-09-03T09:38:32.531Z,67.98
2022-09-03T09:41:10.827Z,67.61
2022-09-03T09:43:39.836Z,68.75
2022-09-03T09:46:13.488Z,70.07
2022-09-03T09:48:50.245Z,68.11
2022-09-03T09:51:22.541Z,69.20
2022-09-03T09:54:02.246Z,68.69
2022-09-03T09:56:30.383Z,67.75
2022-09-03T09:59:06.494Z,66.81
2022-09-03T10:01:35.539Z,66.89
2022-09-03T10:04:12.125Z,68.63
2022-09-03T10:06:57.229Z,69.09
2022-09-03T10:09:31.551Z,67.41
2022-09-03T10:12:14.620Z,65.89
2022-09-03T10:14:48.364Z,66.95
2022-09-03T10:17:36.853Z,64.50
2022-09-03T10:20:30.916Z,65.45
2022-09-03T10:23:03.208Z,64.88
2022-09-03T10:25:40.138Z,64.87
2022-09-03T10:28:13.298Z,64.58
2022-09-03T10:30:57.693Z,62.98
2022-09-03T10:33:32.899Z,62.94
2022-09-03T10:36:12.435Z,64.31
2022-09-03T10:38:43.859Z,62.26
2022-09-03T10:41:28.895Z,64.02
2022-09-03T10:44:35.504Z,64.72
2022-09-03T10:47:19.692Z,64.70
2022-09-03T10:49:54.213Z,64.89
2022-09-03T10:52:32.647Z,65.94
2022-09-03T10:55:15.172Z,65.62
2022-09-03T10:57:50.105Z,64.22
2022-09-03T11:00:20.204Z,63.66
2022-09-03T11:03:23.814Z,62.64
2022-09-03T11:06:02.977Z,59.84
2022-09-03T11:08:37.723Z,61.87
2022-09-03T11:11:13.414Z,61.08
2022-09-03T11:13:48.403Z,62.78
2022-09-03T11:16:21.613Z,61.19
2022-09-03T11:18:52.298Z,61.94
2022-09-03T11:21:24.749Z,61.90
2022-09-03T11:24:14.093Z,61.57
2022-09-03T11:26:44.590Z,60.44
2022-09-03T11:29:18.362Z,61.31
2022-09-03T11:31:59.265Z,60.01
2022-09-03T11:34:32.238Z,58.87
2022-09-03T11:37:20.107Z,60.22
2022-09-03T11:39:58.853Z,58.79
2022-09-03T11:42:33.856Z,58.42
2022-09-03T11:45:15.302Z,59.47
2022-09-03T11:47:44.767Z,59.65
2022-09-03T11:50:21.924Z,61.29
2022-09-03T11:52:53.290Z,61.38
2022-09-03T11:55:43.336Z,58.25
2022-09-03T11:58:14.149Z,59.56
2022-09-03T12:00:44.576Z,62.74
2022-09-03T12:03:17.957Z,59.95
2022-09-03T12:05:53.064Z,60.03
2022-09-03T12:08:48.297Z,59.63
2022-09-03T12:11:34.606Z,60.89
2022-09-03T12:14:13.947Z,60.49
2022-09-03T12:16:53.770Z,57.63
2022-09-03T12:19:30.293Z,61.01
2022-09-03T12:21:58.154Z,59.54
2022-09-03T12:24:34.696Z,59.07
2022-09-03T12:27:08.049Z,58.88
2022-09-03T12:29:35.951Z,57.73
2022-09-03T12:32:09.316Z,58.69
2022-09-03T12:34:37.218Z,59.95
2022-09-03T12:37:05.319Z,60.06
2022-09-03T12:42:26.950Z,58.61
2022-09-03T12:44:54.923Z,57.40
2022-09-03T12:47:40.656Z,58.06
2022-09-03T12:50:11.175Z,57.32
2022-09-03T12:52:43.084Z,55.82
2022-09-03T12:55:27.396Z,57.51
2022-09-03T12:58:02.988Z,57.07
2022-09-03T13:00:33.927Z,55.97
2022-09-03T13:03:05.657Z,56.40
2022-09-03T13:05:36.377Z,58.05
2022-09-03T13:08:08.705Z,57.25
2022-09-03T13:10:41.960Z,58.27
2022-09-03T13:13:23.908Z,57.44
2022-09-03T13:16:01.736Z,58.78
2022-09-03T13:18:39.110Z,58.33
2022-09-03T13:21:16.896Z,60.04
2022-09-03T13:23:58.863Z,59.03
2022-09-03T13:26:37.273Z,58.88
2022-09-03T13:29:27.331Z,57.55
2022-09-03T13:32:05.417Z,55.61
2022-09-03T13:34:38.638Z,57.62
2022-09-03T13:37:20.582Z,55.11
2022-09-03T13:39:53.487Z,54.33
2022-09-03T13:42:27.417Z,55.07
2022-09-03T13:45:06.094Z,56.29
2022-09-03T13:48:03.266Z,54.55
2022-09-03T13:50:39.225Z,55.46
2022-09-03T13:53:12.346Z,55.74
2022-09-03T13:55:48.252Z,56.61
2022-09-03T13:58:25.481Z,57.06
2022-09-03T14:01:20.433Z,58.23
2022-09-03T14:03:51.287Z,57.74
2022-09-03T14:06:38.153Z,59.27
2022-09-03T14:09:16.108Z,58.77
2022-09-03T14:11:54.118Z,58.55
2022-09-03T14:14:38.436Z,58.49
2022-09-03T14:17:20.294Z,59.14
2022-09-03T14:19:54.540Z,57.41
2022-09-03T14:22:25.537Z,59.14
2022-09-03T14:24:57.689Z,59.82
2022-09-03T14:27:27.686Z,57.89
2022-09-03T14:30:00.958Z,58.24
2022-09-03T14:32:36.738Z,59.76
2022-09-03T14:35:22.075Z,60.15
2022-09-03T14:38:16.741Z,59.56
2022-09-03T14:40:47.079Z,60.57
2022-09-03T14:43:32.978Z,60.57
2022-09-03T14:46:24.377Z,60.13
2022-09-03T14:49:19.797Z,60.22
2022-09-03T14:52:01.789Z,59.31
2022-09-03T14:54:42.622Z,58.62
2022-09-03T14:57:26.372Z,59.77
2022-09-03T15:00:10.352Z,60.47
2022-09-03T15:03:20.109Z,60.13
2022-09-03T15:05:58.687Z,59.76
2022-09-03T15:08:40.795Z,58.69
2022-09-03T15:11:17.266Z,60.37
2022-09-03T15:13:52.653Z,60.59
2022-09-03T15:16:42.883Z,59.47
2022-09-03T15:19:26.534Z,61.60
2022-09-03T15:22:09.742Z,60.93
2022-09-03T15:24:50.194Z,61.28
2022-09-03T15:27:37.345Z,61.05
2022-09-03T15:30:09.841Z,60.97
2022-09-03T15:32:49.985Z,62.13
2022-09-03T15:35:35.241Z,62.10
2022-09-03T15:38:08.063Z,62.49
2022-09-03T15:40:41.765Z,62.35
2022-09-03T15:43:16.787Z,62.11
2022-09-03T15:45:57.642Z,61.19
2022-09-03T15:48:35.162Z,61.29
2022-09-03T15:51:14.393Z,62.93
2022-09-03T15:53:52.752Z,63.96
2022-09-03T15:56:25.744Z,63.25
2022-09-03T15:59:01.438Z,61.99
2022-09-03T16:01:41.835Z,62.61
2022-09-03T16:04:23.395Z,64.25
2022-09-03T16:07:00.017Z,64.10
2022-09-03T16:09:44.531Z,64.55
2022-09-03T16:12:23.101Z,64.65
2022-09-03T16:14:59.172Z,64.96
2022-09-03T16:17:32.429Z,66.11
2022-09-03T16:20:07.250Z,66.51
2022-09-03T16:22:44.237Z,67.25
2022-09-03T16:25:17.954Z,67.28
2022-09-03T16:27:56.820Z,68.11
2022-09-03T16:30:38.352Z,69.11
2022-09-03T16:33:16.853Z,69.01
2022-09-03T16:35:51.415Z,70.80
2022-09-03T16:38:29.431Z,68.27
2022-09-03T16:41:10.428Z,68.92
2022-09-03T16:43:47.339Z,69.52
2022-09-03T16:46:29.295Z,69.42
2022-09-03T16:49:22.011Z,70.58
2022-09-03T16:51:56.017Z,71.70
2022-09-03T16:54:46.240Z,71.82
2022-09-03T16:57:39.387Z,72.18
2022-09-03T17:00:12.351Z,72.55
2022-09-03T17:03:03.683Z,72.63
2022-09-03T17:05:56.620Z,72.06
2022-09-03T17:08:33.137Z,72.48
2022-09-03T17:11:11.254Z,72.76
2022-09-03T17:14:01.435Z,72.31
2022-09-03T17:16:50.507Z,73.52
2022-09-03T17:19:27.631Z,74.25
2022-09-03T17:22:10.133Z,74.48
2022-09-03T17:24:42.454Z,74.94
2022-09-03T17:27:28.456Z,76.74
2022-09-03T17:30:20.718Z,76.97
2022-09-03T17:33:35.173Z,77.31
2022-09-03T17:36:11.646Z,77.74
2022-09-03T17:39:03.083Z,78.24
2022-09-03T17:41:41.910Z,78.76
2022-09-03T17:44:23.159Z,79.33
2022-09-03T17:47:05.789Z,80.23
2022-09-03T17:49:43.458Z,80.77
2022-09-03T17:52:27.272Z,82.61
2022-09-03T17:54:58.407Z,81.82
2022-09-03T17:57:31.952Z,81.94
2022-09-03T18:00:04.919Z,82.64
2022-09-03T18:02:36.572Z,84.27
2022-09-03T18:05:17.968Z,84.55
2022-09-03T18:07:52.745Z,83.65
2022-09-03T18:10:28.652Z,83.41
2022-09-03T18:13:08.316Z,83.50
2022-09-03T18:15:40.601Z,84.03
2022-09-03T18:18:19.108Z,83.91
2022-09-03T18:21:23.315Z,84.38
2022-09-03T18:24:17.034Z,84.50
2022-09-03T18:27:07.822Z,84.74
2022-09-03T18:30:04.519Z,85.31
2022-09-03T18:32:49.594Z,86.15
2022-09-03T18:35:36.749Z,87.01
2022-09-03T18:38:22.941Z,88.35
2022-09-03T18:41:14.773Z,90.25
2022-09-03T18:44:12.677Z,91.30
2022-09-03T18:48:01.660Z,91.37
2022-09-03T18:50:17.143Z,90.89
2022-09-03T18:53:14.235Z,90.71
2022-09-03T18:56:12.034Z,91.56
2022-09-03T18:59:09.283Z,93.90
2022-09-03T19:01:58.301Z,93.98
2022-09-03T19:04:55.526Z,95.72
2022-09-03T19:07:48.804Z,98.17
2022-09-03T19:10:41.221Z,97.98
2022-09-03T19:13:39.531Z,96.36
2022-09-03T19:16:31.355Z,95.56
2022-09-03T19:19:33.696Z,95.14
2022-09-03T19:22:26.947Z,96.50
2022-09-03T19:25:16.642Z,96.06
2022-09-03T19:28:13.623Z,94.30
2022-09-03T19:31:15.087Z,92.83
2022-09-03T19:34:12.029Z,92.14
2022-09-03T19:37:08.416Z,92.78
2022-09-03T19:40:10.884Z,92.91
2022-09-03T19:43:10.334Z,94.32
2022-09-03T19:46:04.820Z,94.97
2022-09-03T19:49:02.374Z,95.19
2022-09-03T19:51:53.613Z,96.18
2022-09-03T19:54:41.906Z,95.11
2022-09-03T19:57:30.163Z,94.56
2022-09-03T20:00:17.863Z,96.02
2022-09-03T20:03:18.144Z,97.01
2022-09-03T20:06:08.814Z,98.03
2022-09-03T20:08:56.693Z,97.74
2022-09-03T20:11:27.722Z,96.15
2022-09-03T20:14:16.174Z,94.73
2022-09-03T20:16:59.902Z,98.44
2022-09-03T20:19:38.769Z,100.00
2022-09-03T20:22:17.621Z,100.00
2022-09-03T20:25:05.121Z,100.00
2022-09-03T20:27:49.549Z,100.00
2022-09-03T20:30:20.537Z,100.00
2022-09-03T20:33:19.107Z,100.00
2022-09-03T20:36:02.499Z,100.00
2022-09-03T20:38:55.564Z,100.00
2022-09-03T20:41:30.014Z,100.00
2022-09-03T20:44:17.950Z,100.00
2022-09-03T20:46:57.881Z,100.00
2022-09-03T20:49:38.191Z,100.00
2022-09-03T20:52:11.482Z,100.00
2022-09-03T20:54:45.025Z,100.00
2022-09-03T20:57:21.873Z,100.00
2022-09-03T21:00:04.834Z,100.00
2022-09-03T21:02:48.526Z,100.00
2022-09-03T21:05:23.827Z,100.00
2022-09-03T21:08:01.316Z,100.00
2022-09-03T21:10:35.471Z,100.00
2022-09-03T21:13:13.204Z,100.00
2022-09-03T21:15:55.916Z,100.00
2022-09-03T21:18:33.664Z,100.00
2022-09-03T21:21:14.305Z,100.00
2022-09-03T21:23:45.060Z,100.00
2022-09-03T21:26:19.043Z,100.00
2022-09-03T21:28:56.175Z,100.00
2022-09-03T21:31:30.002Z,100.00
2022-09-03T21:34:12.259Z,100.00
2022-09-03T21:36:44.550Z,100.00
2022-09-03T21:39:22.288Z,100.00
2022-09-03T21:41:56.942Z,100.00
2022-09-03T21:44:37.035Z,100.00
2022-09-03T21:47:10.050Z,100.00
2022-09-03T21:49:44.448Z,100.00
2022-09-03T21:52:18.092Z,100.00
2022-09-03T21:54:46.011Z,100.00
2022-09-03T21:57:22.463Z,100.00
2022-09-03T22:00:18.789Z,100.00
2022-09-03T22:02:47.362Z,100.00
2022-09-03T22:05:17.076Z,100.00
2022-09-03T22:07:56.070Z,100.00
2022-09-03T22:10:29.717Z,100.00
2022-09-03T22:13:09.294Z,100.00
2022-09-03T22:15:38.870Z,100.00
2022-09-03T22:22:19.278Z,100.00
2022-09-03T22:24:58.772Z,100.00
2022-09-03T22:27:35.668Z,100.00
2022-09-03T22:30:07.355Z,100.00
2022-09-03T22:32:49.766Z,100.00
2022-09-03T22:35:35.735Z,100.00
2022-09-03T22:38:20.244Z,100.00
2022-09-03T22:40:52.779Z,100.00
2022-09-03T22:43:36.166Z,100.00
2022-09-03T22:46:09.374Z,100.00
2022-09-03T22:48:51.908Z,100.00
2022-09-03T22:51:21.935Z,100.00
2022-09-03T22:54:10.325Z,100.00
2022-09-03T22:56:42.450Z,100.00
2022-09-03T22:59:14.959Z,100.00
2022-09-03T23:01:46.324Z,100.00
2022-09-03T23:04:18.511Z,100.00
2022-09-03T23:06:53.574Z,100.00
2022-09-03T23:09:26.298Z,100.00
2022-09-03T23:11:59.014Z,100.00
2022-09-03T23:14:30.027Z,100.00
2022-09-03T23:17:04.426Z,100.00
2022-09-03T23:19:38.849Z,100.00
2022-09-03T23:22:11.059Z,100.00
2022-09-03T23:24:43.744Z,100.00
2022-09-03T23:27:18.870Z,100.00
2022-09-03T23:29:50.538Z,100.00
2022-09-03T23:32:18.391Z,100.00
2022-09-03T23:34:46.244Z,100.00
2022-09-03T23:37:34.117Z,100.00
2022-09-03T23:40:28.770Z,100.00
2022-09-03T23:43:43.715Z,100.00
2022-09-03T23:46:19.409Z,100.00
2022-09-03T23:49:18.319Z,100.00
2022-09-03T23:51:57.445Z,100.00
2022-09-03T23:54:34.063Z,100.00
2022-09-03T23:57:08.360Z,100.00
2022-09-03T23:59:52.590Z,100.00
